sensor_id;sensor_type;location;lat;lon;timestamp;P1;durP1;ratioP1;P2;durP2;ratioP2
39540;SDS011;25219;52.244;21.006;2022-12-29T00:01:50;13.38;;;5.20;;
39540;SDS011;25219;52.244;21.006;2022-12-29T00:04:17;15.55;;;5.95;;
39540;SDS011;25219;52.244;21.006;2022-12-29T00:06:43;9.85;;;5.10;;
39540;SDS011;25219;52.244;21.006;2022-12-29T00:09:08;11.70;;;5.22;;
39540;SDS011;25219;52.244;21.006;2022-12-29T00:11:35;9.63;;;4.90;;
39540;SDS011;25219;52.244;21.006;2022-12-29T00:14:00;13.55;;;5.70;;
39540;SDS011;25219;52.244;21.006;2022-12-29T00:16:44;13.07;;;5.38;;
39540;SDS011;25219;52.244;21.006;2022-12-29T00:19:10;10.15;;;4.82;;
39540;SDS011;25219;52.244;21.006;2022-12-29T00:21:55;12.10;;;4.88;;
39540;SDS011;25219;52.244;21.006;2022-12-29T00:24:40;11.43;;;4.75;;
39540;SDS011;25219;52.244;21.006;2022-12-29T00:27:25;11.32;;;5.00;;
39540;SDS011;25219;52.244;21.006;2022-12-29T00:30:16;10.45;;;5.00;;
39540;SDS011;25219;52.244;21.006;2022-12-29T00:33:00;12.73;;;5.50;;
39540;SDS011;25219;52.244;21.006;2022-12-29T00:35:45;11.45;;;5.50;;
39540;SDS011;25219;52.244;21.006;2022-12-29T00:38:11;13.73;;;5.18;;
39540;SDS011;25219;52.244;21.006;2022-12-29T00:40:56;9.73;;;5.10;;
39540;SDS011;25219;52.244;21.006;2022-12-29T00:43:40;12.82;;;5.03;;
39540;SDS011;25219;52.244;21.006;2022-12-29T00:46:24;10.90;;;4.72;;
39540;SDS011;25219;52.244;21.006;2022-12-29T00:48:49;8.50;;;4.20;;
39540;SDS011;25219;52.244;21.006;2022-12-29T00:51:33;14.55;;;7.88;;
39540;SDS011;25219;52.244;21.006;2022-12-29T00:53:58;9.73;;;5.63;;
39540;SDS011;25219;52.244;21.006;2022-12-29T00:56:23;11.75;;;5.13;;
39540;SDS011;25219;52.244;21.006;2022-12-29T00:58:49;10.23;;;4.95;;
39540;SDS011;25219;52.244;21.006;2022-12-29T01:01:14;12.57;;;4.88;;
39540;SDS011;25219;52.244;21.006;2022-12-29T01:03:39;8.63;;;4.95;;
39540;SDS011;25219;52.244;21.006;2022-12-29T01:06:08;7.97;;;4.10;;
39540;SDS011;25219;52.244;21.006;2022-12-29T01:08:34;8.82;;;4.28;;
39540;SDS011;25219;52.244;21.006;2022-12-29T01:11:00;8.80;;;4.28;;
39540;SDS011;25219;52.244;21.006;2022-12-29T01:13:26;11.43;;;4.50;;
39540;SDS011;25219;52.244;21.006;2022-12-29T01:15:51;8.55;;;4.38;;
39540;SDS011;25219;52.244;21.006;2022-12-29T01:18:17;10.45;;;4.60;;
39540;SDS011;25219;52.244;21.006;2022-12-29T01:20:42;8.90;;;4.57;;
39540;SDS011;25219;52.244;21.006;2022-12-29T01:23:08;12.93;;;4.35;;
39540;SDS011;25219;52.244;21.006;2022-12-29T01:25:33;8.43;;;4.03;;
39540;SDS011;25219;52.244;21.006;2022-12-29T01:27:58;10.73;;;4.88;;
39540;SDS011;25219;52.244;21.006;2022-12-29T01:30:24;10.18;;;4.40;;
39540;SDS011;25219;52.244;21.006;2022-12-29T01:32:49;8.85;;;4.28;;
39540;SDS011;25219;52.244;21.006;2022-12-29T01:35:14;8.15;;;4.43;;
39540;SDS011;25219;52.244;21.006;2022-12-29T01:37:40;10.07;;;4.72;;
39540;SDS011;25219;52.244;21.006;2022-12-29T01:40:05;10.85;;;4.60;;
39540;SDS011;25219;52.244;21.006;2022-12-29T01:42:31;11.32;;;5.22;;
39540;SDS011;25219;52.244;21.006;2022-12-29T01:44:56;10.55;;;4.35;;
39540;SDS011;25219;52.244;21.006;2022-12-29T01:47:33;10.80;;;4.60;;
39540;SDS011;25219;52.244;21.006;2022-12-29T01:50:03;9.77;;;4.25;;
39540;SDS011;25219;52.244;21.006;2022-12-29T01:52:32;9.73;;;3.92;;
39540;SDS011;25219;52.244;21.006;2022-12-29T01:55:02;12.35;;;4.70;;
39540;SDS011;25219;52.244;21.006;2022-12-29T01:57:29;8.15;;;4.35;;
39540;SDS011;25219;52.244;21.006;2022-12-29T02:00:05;7.70;;;3.95;;
39540;SDS011;25219;52.244;21.006;2022-12-29T02:02:32;8.55;;;3.90;;
39540;SDS011;25219;52.244;21.006;2022-12-29T02:04:58;10.15;;;4.10;;
39540;SDS011;25219;52.244;21.006;2022-12-29T02:07:24;8.65;;;4.05;;
39540;SDS011;25219;52.244;21.006;2022-12-29T02:09:50;8.32;;;3.92;;
39540;SDS011;25219;52.244;21.006;2022-12-29T02:12:17;8.07;;;3.83;;
39540;SDS011;25219;52.244;21.006;2022-12-29T02:14:43;10.38;;;4.30;;
39540;SDS011;25219;52.244;21.006;2022-12-29T02:19:50;11.07;;;4.53;;
39540;SDS011;25219;52.244;21.006;2022-12-29T02:22:22;8.65;;;4.13;;
39540;SDS011;25219;52.244;21.006;2022-12-29T02:35:09;7.25;;;3.88;;
39540;SDS011;25219;52.244;21.006;2022-12-29T02:47:35;8.13;;;3.67;;
39540;SDS011;25219;52.244;21.006;2022-12-29T02:52:31;6.32;;;3.63;;
39540;SDS011;25219;52.244;21.006;2022-12-29T02:54:58;9.63;;;3.90;;
39540;SDS011;25219;52.244;21.006;2022-12-29T02:59:57;7.80;;;3.75;;
39540;SDS011;25219;52.244;21.006;2022-12-29T03:07:24;12.77;;;4.07;;
39540;SDS011;25219;52.244;21.006;2022-12-29T03:10:00;7.20;;;3.50;;
39540;SDS011;25219;52.244;21.006;2022-12-29T03:12:33;11.60;;;3.75;;
39540;SDS011;25219;52.244;21.006;2022-12-29T03:15:21;8.63;;;4.07;;
39540;SDS011;25219;52.244;21.006;2022-12-29T03:18:06;12.93;;;4.55;;
39540;SDS011;25219;52.244;21.006;2022-12-29T03:20:39;8.65;;;3.58;;
39540;SDS011;25219;52.244;21.006;2022-12-29T03:23:08;11.35;;;3.95;;
39540;SDS011;25219;52.244;21.006;2022-12-29T03:25:34;9.35;;;4.22;;
39540;SDS011;25219;52.244;21.006;2022-12-29T03:28:01;7.80;;;3.70;;
39540;SDS011;25219;52.244;21.006;2022-12-29T03:30:28;8.02;;;3.90;;
39540;SDS011;25219;52.244;21.006;2022-12-29T03:32:58;8.25;;;4.00;;
39540;SDS011;25219;52.244;21.006;2022-12-29T03:35:25;6.57;;;3.65;;
39540;SDS011;25219;52.244;21.006;2022-12-29T03:40:18;9.80;;;3.55;;
39540;SDS011;25219;52.244;21.006;2022-12-29T03:42:44;8.80;;;3.60;;
39540;SDS011;25219;52.244;21.006;2022-12-29T03:45:10;5.65;;;3.25;;
39540;SDS011;25219;52.244;21.006;2022-12-29T03:47:36;6.60;;;3.58;;
39540;SDS011;25219;52.244;21.006;2022-12-29T03:50:01;6.43;;;3.47;;
39540;SDS011;25219;52.244;21.006;2022-12-29T03:52:26;7.57;;;4.13;;
39540;SDS011;25219;52.244;21.006;2022-12-29T03:54:52;8.57;;;3.85;;
39540;SDS011;25219;52.244;21.006;2022-12-29T03:57:17;12.70;;;3.72;;
39540;SDS011;25219;52.244;21.006;2022-12-29T03:59:42;7.35;;;3.75;;
39540;SDS011;25219;52.244;21.006;2022-12-29T04:02:08;5.30;;;3.08;;
39540;SDS011;25219;52.244;21.006;2022-12-29T04:04:33;6.80;;;3.15;;
39540;SDS011;25219;52.244;21.006;2022-12-29T04:06:58;8.75;;;4.50;;
39540;SDS011;25219;52.244;21.006;2022-12-29T04:09:23;6.03;;;3.13;;
39540;SDS011;25219;52.244;21.006;2022-12-29T04:11:49;6.80;;;3.25;;
39540;SDS011;25219;52.244;21.006;2022-12-29T04:14:14;9.10;;;3.60;;
39540;SDS011;25219;52.244;21.006;2022-12-29T04:16:39;8.10;;;3.75;;
39540;SDS011;25219;52.244;21.006;2022-12-29T04:19:05;10.95;;;4.22;;
39540;SDS011;25219;52.244;21.006;2022-12-29T04:21:31;7.15;;;3.58;;
39540;SDS011;25219;52.244;21.006;2022-12-29T04:23:56;7.65;;;3.42;;
39540;SDS011;25219;52.244;21.006;2022-12-29T04:26:21;10.63;;;4.55;;
39540;SDS011;25219;52.244;21.006;2022-12-29T04:28:47;8.65;;;4.35;;
39540;SDS011;25219;52.244;21.006;2022-12-29T04:31:12;9.88;;;4.40;;
39540;SDS011;25219;52.244;21.006;2022-12-29T04:33:37;9.40;;;4.47;;
39540;SDS011;25219;52.244;21.006;2022-12-29T04:36:03;9.43;;;4.43;;
39540;SDS011;25219;52.244;21.006;2022-12-29T04:38:28;9.75;;;4.20;;
39540;SDS011;25219;52.244;21.006;2022-12-29T04:40:53;9.73;;;4.32;;
39540;SDS011;25219;52.244;21.006;2022-12-29T04:43:19;9.88;;;4.40;;
39540;SDS011;25219;52.244;21.006;2022-12-29T04:45:45;10.00;;;4.47;;
39540;SDS011;25219;52.244;21.006;2022-12-29T04:48:10;16.40;;;4.65;;
39540;SDS011;25219;52.244;21.006;2022-12-29T04:50:36;13.73;;;4.32;;
39540;SDS011;25219;52.244;21.006;2022-12-29T04:53:01;13.88;;;4.47;;
39540;SDS011;25219;52.244;21.006;2022-12-29T04:55:29;8.68;;;4.53;;
39540;SDS011;25219;52.244;21.006;2022-12-29T04:57:55;13.60;;;5.15;;
39540;SDS011;25219;52.244;21.006;2022-12-29T05:00:20;12.15;;;4.97;;
39540;SDS011;25219;52.244;21.006;2022-12-29T05:02:46;10.40;;;4.72;;
39540;SDS011;25219;52.244;21.006;2022-12-29T05:05:11;11.07;;;5.10;;
39540;SDS011;25219;52.244;21.006;2022-12-29T05:07:36;12.07;;;5.20;;
39540;SDS011;25219;52.244;21.006;2022-12-29T05:10:02;12.30;;;4.63;;
39540;SDS011;25219;52.244;21.006;2022-12-29T05:12:31;10.45;;;5.07;;
39540;SDS011;25219;52.244;21.006;2022-12-29T05:14:57;11.90;;;4.70;;
39540;SDS011;25219;52.244;21.006;2022-12-29T05:17:22;13.13;;;5.15;;
39540;SDS011;25219;52.244;21.006;2022-12-29T05:19:47;10.27;;;5.10;;
39540;SDS011;25219;52.244;21.006;2022-12-29T05:22:13;13.05;;;5.50;;
39540;SDS011;25219;52.244;21.006;2022-12-29T05:24:39;16.15;;;5.85;;
39540;SDS011;25219;52.244;21.006;2022-12-29T05:27:04;12.68;;;5.10;;
39540;SDS011;25219;52.244;21.006;2022-12-29T05:29:30;13.07;;;5.47;;
39540;SDS011;25219;52.244;21.006;2022-12-29T05:31:55;14.85;;;5.93;;
39540;SDS011;25219;52.244;21.006;2022-12-29T05:34:20;14.50;;;5.80;;
39540;SDS011;25219;52.244;21.006;2022-12-29T05:36:46;10.52;;;5.30;;
39540;SDS011;25219;52.244;21.006;2022-12-29T05:39:11;14.63;;;6.03;;
39540;SDS011;25219;52.244;21.006;2022-12-29T05:41:36;12.73;;;5.57;;
39540;SDS011;25219;52.244;21.006;2022-12-29T05:44:02;13.82;;;5.95;;
39540;SDS011;25219;52.244;21.006;2022-12-29T05:46:27;14.27;;;5.70;;
39540;SDS011;25219;52.244;21.006;2022-12-29T05:48:53;14.52;;;5.72;;
39540;SDS011;25219;52.244;21.006;2022-12-29T05:51:18;13.77;;;5.55;;
39540;SDS011;25219;52.244;21.006;2022-12-29T05:53:45;11.23;;;4.90;;
39540;SDS011;25219;52.244;21.006;2022-12-29T05:56:11;13.20;;;5.50;;
39540;SDS011;25219;52.244;21.006;2022-12-29T05:58:36;12.68;;;5.45;;
39540;SDS011;25219;52.244;21.006;2022-12-29T06:01:01;12.55;;;6.07;;
39540;SDS011;25219;52.244;21.006;2022-12-29T06:03:27;12.23;;;5.32;;
39540;SDS011;25219;52.244;21.006;2022-12-29T06:05:55;12.18;;;5.60;;
39540;SDS011;25219;52.244;21.006;2022-12-29T06:08:20;10.88;;;5.15;;
39540;SDS011;25219;52.244;21.006;2022-12-29T06:10:46;10.10;;;5.15;;
39540;SDS011;25219;52.244;21.006;2022-12-29T06:13:11;14.68;;;5.53;;
39540;SDS011;25219;52.244;21.006;2022-12-29T06:15:36;14.15;;;5.45;;
39540;SDS011;25219;52.244;21.006;2022-12-29T06:18:02;12.38;;;4.93;;
39540;SDS011;25219;52.244;21.006;2022-12-29T06:20:27;13.85;;;5.80;;
39540;SDS011;25219;52.244;21.006;2022-12-29T06:22:52;10.73;;;5.13;;
39540;SDS011;25219;52.244;21.006;2022-12-29T06:25:18;11.95;;;4.50;;
39540;SDS011;25219;52.244;21.006;2022-12-29T06:27:43;11.25;;;4.90;;
39540;SDS011;25219;52.244;21.006;2022-12-29T06:30:09;11.52;;;4.63;;
39540;SDS011;25219;52.244;21.006;2022-12-29T06:32:35;10.10;;;4.45;;
39540;SDS011;25219;52.244;21.006;2022-12-29T06:35:00;11.38;;;5.10;;
39540;SDS011;25219;52.244;21.006;2022-12-29T06:37:26;12.15;;;4.97;;
39540;SDS011;25219;52.244;21.006;2022-12-29T06:39:51;12.48;;;5.10;;
39540;SDS011;25219;52.244;21.006;2022-12-29T06:42:16;10.82;;;4.95;;
39540;SDS011;25219;52.244;21.006;2022-12-29T06:44:42;13.43;;;5.53;;
39540;SDS011;25219;52.244;21.006;2022-12-29T06:47:07;10.30;;;4.57;;
39540;SDS011;25219;52.244;21.006;2022-12-29T06:49:33;10.27;;;5.00;;
39540;SDS011;25219;52.244;21.006;2022-12-29T06:51:58;11.85;;;5.38;;
39540;SDS011;25219;52.244;21.006;2022-12-29T06:54:25;15.73;;;4.90;;
39540;SDS011;25219;52.244;21.006;2022-12-29T06:56:51;8.32;;;4.20;;
39540;SDS011;25219;52.244;21.006;2022-12-29T06:59:16;10.10;;;5.05;;
39540;SDS011;25219;52.244;21.006;2022-12-29T07:01:41;9.68;;;4.20;;
39540;SDS011;25219;52.244;21.006;2022-12-29T07:04:07;9.32;;;4.85;;
39540;SDS011;25219;52.244;21.006;2022-12-29T07:06:32;11.70;;;4.40;;
39540;SDS011;25219;52.244;21.006;2022-12-29T07:08:57;13.00;;;4.40;;
39540;SDS011;25219;52.244;21.006;2022-12-29T07:11:23;9.23;;;4.28;;
39540;SDS011;25219;52.244;21.006;2022-12-29T07:13:48;12.65;;;4.57;;
39540;SDS011;25219;52.244;21.006;2022-12-29T07:16:14;9.20;;;4.38;;
39540;SDS011;25219;52.244;21.006;2022-12-29T07:18:39;17.02;;;5.22;;
39540;SDS011;25219;52.244;21.006;2022-12-29T07:21:04;9.70;;;4.43;;
39540;SDS011;25219;52.244;21.006;2022-12-29T07:23:30;10.38;;;4.05;;
39540;SDS011;25219;52.244;21.006;2022-12-29T07:25:59;11.45;;;4.72;;
39540;SDS011;25219;52.244;21.006;2022-12-29T07:28:25;11.50;;;4.47;;
39540;SDS011;25219;52.244;21.006;2022-12-29T07:30:50;9.90;;;4.47;;
39540;SDS011;25219;52.244;21.006;2022-12-29T07:33:17;10.63;;;4.30;;
39540;SDS011;25219;52.244;21.006;2022-12-29T07:35:49;8.20;;;4.55;;
39540;SDS011;25219;52.244;21.006;2022-12-29T07:38:27;9.13;;;4.00;;
39540;SDS011;25219;52.244;21.006;2022-12-29T07:40:55;11.40;;;4.45;;
39540;SDS011;25219;52.244;21.006;2022-12-29T07:43:21;7.97;;;3.53;;
39540;SDS011;25219;52.244;21.006;2022-12-29T07:45:47;10.27;;;4.30;;
39540;SDS011;25219;52.244;21.006;2022-12-29T07:48:13;7.85;;;4.05;;
39540;SDS011;25219;52.244;21.006;2022-12-29T07:50:38;9.00;;;4.28;;
39540;SDS011;25219;52.244;21.006;2022-12-29T07:53:03;10.82;;;4.40;;
39540;SDS011;25219;52.244;21.006;2022-12-29T07:55:29;8.45;;;3.83;;
39540;SDS011;25219;52.244;21.006;2022-12-29T07:57:54;11.40;;;5.22;;
39540;SDS011;25219;52.244;21.006;2022-12-29T08:00:20;9.55;;;4.38;;
39540;SDS011;25219;52.244;21.006;2022-12-29T08:02:45;9.02;;;4.05;;
39540;SDS011;25219;52.244;21.006;2022-12-29T08:05:10;11.02;;;3.83;;
39540;SDS011;25219;52.244;21.006;2022-12-29T08:07:36;9.35;;;3.70;;
39540;SDS011;25219;52.244;21.006;2022-12-29T08:10:01;10.10;;;4.10;;
39540;SDS011;25219;52.244;21.006;2022-12-29T08:12:27;11.02;;;4.75;;
39540;SDS011;25219;52.244;21.006;2022-12-29T08:14:52;10.18;;;3.85;;
39540;SDS011;25219;52.244;21.006;2022-12-29T08:17:17;9.18;;;4.30;;
39540;SDS011;25219;52.244;21.006;2022-12-29T08:19:43;10.38;;;4.32;;
39540;SDS011;25219;52.244;21.006;2022-12-29T08:22:08;9.35;;;4.30;;
39540;SDS011;25219;52.244;21.006;2022-12-29T08:24:34;10.05;;;4.70;;
39540;SDS011;25219;52.244;21.006;2022-12-29T08:26:59;9.82;;;4.43;;
39540;SDS011;25219;52.244;21.006;2022-12-29T08:29:25;8.00;;;4.15;;
39540;SDS011;25219;52.244;21.006;2022-12-29T08:31:50;10.95;;;4.50;;
39540;SDS011;25219;52.244;21.006;2022-12-29T08:34:15;11.02;;;4.07;;
39540;SDS011;25219;52.244;21.006;2022-12-29T08:36:40;7.60;;;3.60;;
39540;SDS011;25219;52.244;21.006;2022-12-29T08:39:06;9.55;;;3.95;;
39540;SDS011;25219;52.244;21.006;2022-12-29T08:41:31;12.70;;;4.15;;
39540;SDS011;25219;52.244;21.006;2022-12-29T08:43:56;8.45;;;4.35;;
39540;SDS011;25219;52.244;21.006;2022-12-29T08:46:22;10.00;;;4.63;;
39540;SDS011;25219;52.244;21.006;2022-12-29T08:48:47;11.02;;;4.40;;
39540;SDS011;25219;52.244;21.006;2022-12-29T08:51:13;7.75;;;4.18;;
39540;SDS011;25219;52.244;21.006;2022-12-29T08:53:38;7.32;;;3.38;;
39540;SDS011;25219;52.244;21.006;2022-12-29T08:56:04;6.63;;;3.65;;
39540;SDS011;25219;52.244;21.006;2022-12-29T08:58:30;11.95;;;3.92;;
39540;SDS011;25219;52.244;21.006;2022-12-29T09:00:55;9.60;;;4.07;;
39540;SDS011;25219;52.244;21.006;2022-12-29T09:03:22;10.65;;;4.22;;
39540;SDS011;25219;52.244;21.006;2022-12-29T09:05:48;9.18;;;3.53;;
39540;SDS011;25219;52.244;21.006;2022-12-29T09:08:14;13.30;;;4.30;;
39540;SDS011;25219;52.244;21.006;2022-12-29T09:10:39;10.48;;;4.68;;
39540;SDS011;25219;52.244;21.006;2022-12-29T09:13:04;8.45;;;3.90;;
39540;SDS011;25219;52.244;21.006;2022-12-29T09:15:30;10.35;;;4.45;;
39540;SDS011;25219;52.244;21.006;2022-12-29T09:17:55;10.40;;;4.47;;
39540;SDS011;25219;52.244;21.006;2022-12-29T09:20:20;10.30;;;4.20;;
39540;SDS011;25219;52.244;21.006;2022-12-29T09:22:46;9.02;;;4.50;;
39540;SDS011;25219;52.244;21.006;2022-12-29T09:25:11;7.07;;;3.50;;
39540;SDS011;25219;52.244;21.006;2022-12-29T09:27:37;10.15;;;4.03;;
39540;SDS011;25219;52.244;21.006;2022-12-29T09:30:03;9.63;;;3.92;;
39540;SDS011;25219;52.244;21.006;2022-12-29T09:32:28;9.35;;;3.97;;
39540;SDS011;25219;52.244;21.006;2022-12-29T09:34:54;6.00;;;3.45;;
39540;SDS011;25219;52.244;21.006;2022-12-29T09:37:19;8.75;;;4.03;;
39540;SDS011;25219;52.244;21.006;2022-12-29T09:39:44;8.57;;;3.75;;
39540;SDS011;25219;52.244;21.006;2022-12-29T09:47:08;8.63;;;3.78;;
39540;SDS011;25219;52.244;21.006;2022-12-29T09:52:07;8.13;;;3.55;;
39540;SDS011;25219;52.244;21.006;2022-12-29T09:57:00;9.18;;;3.65;;
39540;SDS011;25219;52.244;21.006;2022-12-29T09:59:36;8.88;;;3.92;;
39540;SDS011;25219;52.244;21.006;2022-12-29T10:04:35;10.30;;;3.97;;
39540;SDS011;25219;52.244;21.006;2022-12-29T10:07:07;6.95;;;3.83;;
39540;SDS011;25219;52.244;21.006;2022-12-29T10:25:08;8.05;;;3.72;;
39540;SDS011;25219;52.244;21.006;2022-12-29T10:27:37;4.95;;;3.40;;
39540;SDS011;25219;52.244;21.006;2022-12-29T10:30:02;7.72;;;3.95;;
39540;SDS011;25219;52.244;21.006;2022-12-29T10:32:36;7.72;;;3.80;;
39540;SDS011;25219;52.244;21.006;2022-12-29T10:35:06;10.40;;;3.72;;
39540;SDS011;25219;52.244;21.006;2022-12-29T10:37:44;10.35;;;4.10;;
39540;SDS011;25219;52.244;21.006;2022-12-29T10:40:12;6.90;;;3.42;;
39540;SDS011;25219;52.244;21.006;2022-12-29T10:42:43;10.63;;;3.92;;
39540;SDS011;25219;52.244;21.006;2022-12-29T10:45:13;7.07;;;3.33;;
39540;SDS011;25219;52.244;21.006;2022-12-29T10:47:42;7.20;;;3.33;;
39540;SDS011;25219;52.244;21.006;2022-12-29T10:50:11;8.93;;;4.07;;
39540;SDS011;25219;52.244;21.006;2022-12-29T10:52:37;8.30;;;3.60;;
39540;SDS011;25219;52.244;21.006;2022-12-29T10:55:04;6.22;;;3.33;;
39540;SDS011;25219;52.244;21.006;2022-12-29T10:57:33;6.63;;;3.97;;
39540;SDS011;25219;52.244;21.006;2022-12-29T11:00:00;8.35;;;4.47;;
39540;SDS011;25219;52.244;21.006;2022-12-29T11:02:34;9.75;;;4.20;;
39540;SDS011;25219;52.244;21.006;2022-12-29T11:07:30;10.00;;;4.40;;
39540;SDS011;25219;52.244;21.006;2022-12-29T11:10:15;11.52;;;4.75;;
39540;SDS011;25219;52.244;21.006;2022-12-29T11:12:40;19.00;;;4.18;;
39540;SDS011;25219;52.244;21.006;2022-12-29T11:17:42;8.07;;;4.13;;
39540;SDS011;25219;52.244;21.006;2022-12-29T11:22:45;8.35;;;4.25;;
39540;SDS011;25219;52.244;21.006;2022-12-29T11:25:11;8.95;;;4.25;;
39540;SDS011;25219;52.244;21.006;2022-12-29T11:27:37;8.27;;;3.85;;
39540;SDS011;25219;52.244;21.006;2022-12-29T11:30:02;9.57;;;4.10;;
39540;SDS011;25219;52.244;21.006;2022-12-29T11:32:50;8.50;;;4.18;;
39540;SDS011;25219;52.244;21.006;2022-12-29T11:35:30;8.57;;;4.03;;
39540;SDS011;25219;52.244;21.006;2022-12-29T11:37:56;13.45;;;5.03;;
39540;SDS011;25219;52.244;21.006;2022-12-29T11:40:23;9.38;;;4.05;;
39540;SDS011;25219;52.244;21.006;2022-12-29T11:42:50;8.30;;;4.00;;
39540;SDS011;25219;52.244;21.006;2022-12-29T11:45:21;8.38;;;4.10;;
39540;SDS011;25219;52.244;21.006;2022-12-29T11:47:47;7.20;;;4.18;;
39540;SDS011;25219;52.244;21.006;2022-12-29T11:50:20;11.38;;;4.57;;
39540;SDS011;25219;52.244;21.006;2022-12-29T11:52:46;8.93;;;4.32;;
39540;SDS011;25219;52.244;21.006;2022-12-29T11:55:31;11.63;;;4.55;;
39540;SDS011;25219;52.244;21.006;2022-12-29T11:57:58;10.60;;;4.40;;
39540;SDS011;25219;52.244;21.006;2022-12-29T12:00:26;8.10;;;3.90;;
39540;SDS011;25219;52.244;21.006;2022-12-29T12:05:28;6.75;;;4.00;;
39540;SDS011;25219;52.244;21.006;2022-12-29T12:10:29;9.27;;;4.47;;
39540;SDS011;25219;52.244;21.006;2022-12-29T12:13:01;10.63;;;4.25;;
39540;SDS011;25219;52.244;21.006;2022-12-29T12:15:34;9.77;;;4.35;;
39540;SDS011;25219;52.244;21.006;2022-12-29T12:18:26;13.05;;;4.50;;
39540;SDS011;25219;52.244;21.006;2022-12-29T12:20:57;10.57;;;4.50;;
39540;SDS011;25219;52.244;21.006;2022-12-29T12:31:17;6.38;;;4.15;;
39540;SDS011;25219;52.244;21.006;2022-12-29T12:33:44;8.88;;;4.18;;
39540;SDS011;25219;52.244;21.006;2022-12-29T12:41:31;10.93;;;5.20;;
39540;SDS011;25219;52.244;21.006;2022-12-29T12:44:01;9.20;;;4.43;;
39540;SDS011;25219;52.244;21.006;2022-12-29T12:57:05;13.30;;;4.00;;
39540;SDS011;25219;52.244;21.006;2022-12-29T12:59:38;10.38;;;3.97;;
39540;SDS011;25219;52.244;21.006;2022-12-29T13:02:25;9.05;;;4.90;;
39540;SDS011;25219;52.244;21.006;2022-12-29T13:12:22;7.55;;;3.70;;
39540;SDS011;25219;52.244;21.006;2022-12-29T13:15:09;9.50;;;4.40;;
39540;SDS011;25219;52.244;21.006;2022-12-29T13:17:42;12.50;;;4.35;;
39540;SDS011;25219;52.244;21.006;2022-12-29T13:28:25;12.20;;;4.45;;
39540;SDS011;25219;52.244;21.006;2022-12-29T13:30:53;12.20;;;4.18;;
39540;SDS011;25219;52.244;21.006;2022-12-29T13:35:52;9.68;;;4.63;;
39540;SDS011;25219;52.244;21.006;2022-12-29T13:40:49;12.90;;;4.10;;
39540;SDS011;25219;52.244;21.006;2022-12-29T13:43:16;14.05;;;4.75;;
39540;SDS011;25219;52.244;21.006;2022-12-29T13:45:42;11.48;;;4.43;;
39540;SDS011;25219;52.244;21.006;2022-12-29T13:48:19;7.82;;;4.00;;
39540;SDS011;25219;52.244;21.006;2022-12-29T13:50:52;14.05;;;5.22;;
39540;SDS011;25219;52.244;21.006;2022-12-29T13:53:27;11.55;;;4.72;;
39540;SDS011;25219;52.244;21.006;2022-12-29T13:56:02;11.00;;;4.00;;
39540;SDS011;25219;52.244;21.006;2022-12-29T14:01:03;12.07;;;4.18;;
39540;SDS011;25219;52.244;21.006;2022-12-29T14:08:29;11.17;;;4.63;;
39540;SDS011;25219;52.244;21.006;2022-12-29T14:10:58;12.52;;;4.18;;
39540;SDS011;25219;52.244;21.006;2022-12-29T14:13:29;10.98;;;4.43;;
39540;SDS011;25219;52.244;21.006;2022-12-29T14:15:55;9.38;;;4.32;;
39540;SDS011;25219;52.244;21.006;2022-12-29T14:18:24;7.65;;;4.10;;
39540;SDS011;25219;52.244;21.006;2022-12-29T14:26:14;7.82;;;4.55;;
39540;SDS011;25219;52.244;21.006;2022-12-29T14:28:46;10.38;;;4.80;;
39540;SDS011;25219;52.244;21.006;2022-12-29T14:33:41;8.95;;;4.82;;
39540;SDS011;25219;52.244;21.006;2022-12-29T14:38:44;12.20;;;4.93;;
39540;SDS011;25219;52.244;21.006;2022-12-29T14:41:30;8.07;;;4.30;;
39540;SDS011;25219;52.244;21.006;2022-12-29T14:43:58;8.80;;;4.50;;
39540;SDS011;25219;52.244;21.006;2022-12-29T14:46:24;14.65;;;4.65;;
39540;SDS011;25219;52.244;21.006;2022-12-29T14:48:54;12.65;;;5.07;;
39540;SDS011;25219;52.244;21.006;2022-12-29T14:51:25;11.32;;;5.18;;
39540;SDS011;25219;52.244;21.006;2022-12-29T14:53:52;11.75;;;4.80;;
39540;SDS011;25219;52.244;21.006;2022-12-29T14:56:18;10.00;;;5.10;;
39540;SDS011;25219;52.244;21.006;2022-12-29T14:58:52;17.15;;;5.65;;
39540;SDS011;25219;52.244;21.006;2022-12-29T15:01:20;10.85;;;5.13;;
39540;SDS011;25219;52.244;21.006;2022-12-29T15:03:47;13.32;;;4.90;;
39540;SDS011;25219;52.244;21.006;2022-12-29T15:06:15;11.70;;;5.18;;
39540;SDS011;25219;52.244;21.006;2022-12-29T15:08:46;11.20;;;5.20;;
39540;SDS011;25219;52.244;21.006;2022-12-29T15:11:13;9.63;;;4.70;;
39540;SDS011;25219;52.244;21.006;2022-12-29T15:13:40;12.80;;;5.90;;
39540;SDS011;25219;52.244;21.006;2022-12-29T15:16:52;10.73;;;4.88;;
39540;SDS011;25219;52.244;21.006;2022-12-29T15:18:52;8.65;;;4.55;;
39540;SDS011;25219;52.244;21.006;2022-12-29T15:21:20;8.85;;;4.68;;
39540;SDS011;25219;52.244;21.006;2022-12-29T15:23:47;12.05;;;4.60;;
39540;SDS011;25219;52.244;21.006;2022-12-29T15:26:13;9.27;;;5.20;;
39540;SDS011;25219;52.244;21.006;2022-12-29T15:28:46;10.30;;;4.88;;
39540;SDS011;25219;52.244;21.006;2022-12-29T15:31:19;15.10;;;5.05;;
39540;SDS011;25219;52.244;21.006;2022-12-29T15:33:46;13.10;;;5.50;;
39540;SDS011;25219;52.244;21.006;2022-12-29T15:36:13;15.27;;;5.22;;
39540;SDS011;25219;52.244;21.006;2022-12-29T15:38:39;13.75;;;5.35;;
39540;SDS011;25219;52.244;21.006;2022-12-29T15:46:04;11.52;;;5.82;;
39540;SDS011;25219;52.244;21.006;2022-12-29T15:48:29;17.15;;;5.90;;
39540;SDS011;25219;52.244;21.006;2022-12-29T15:50:55;12.32;;;5.95;;
39540;SDS011;25219;52.244;21.006;2022-12-29T15:53:23;12.05;;;5.43;;
39540;SDS011;25219;52.244;21.006;2022-12-29T15:55:54;14.75;;;6.30;;
39540;SDS011;25219;52.244;21.006;2022-12-29T15:58:24;12.82;;;6.40;;
39540;SDS011;25219;52.244;21.006;2022-12-29T16:00:54;12.63;;;5.38;;
39540;SDS011;25219;52.244;21.006;2022-12-29T16:03:20;10.57;;;6.03;;
39540;SDS011;25219;52.244;21.006;2022-12-29T16:05:50;13.63;;;6.03;;
39540;SDS011;25219;52.244;21.006;2022-12-29T16:08:34;9.95;;;5.25;;
39540;SDS011;25219;52.244;21.006;2022-12-29T16:11:02;11.57;;;5.50;;
39540;SDS011;25219;52.244;21.006;2022-12-29T16:13:34;12.85;;;5.28;;
39540;SDS011;25219;52.244;21.006;2022-12-29T16:16:13;11.32;;;5.63;;
39540;SDS011;25219;52.244;21.006;2022-12-29T16:18:41;12.35;;;5.35;;
39540;SDS011;25219;52.244;21.006;2022-12-29T16:21:14;11.05;;;5.07;;
39540;SDS011;25219;52.244;21.006;2022-12-29T16:23:40;13.98;;;6.40;;
39540;SDS011;25219;52.244;21.006;2022-12-29T16:26:11;10.95;;;5.13;;
39540;SDS011;25219;52.244;21.006;2022-12-29T16:28:40;12.35;;;4.90;;
39540;SDS011;25219;52.244;21.006;2022-12-29T16:31:21;14.27;;;5.68;;
39540;SDS011;25219;52.244;21.006;2022-12-29T16:33:53;14.63;;;5.53;;
39540;SDS011;25219;52.244;21.006;2022-12-29T16:36:26;15.13;;;5.25;;
39540;SDS011;25219;52.244;21.006;2022-12-29T16:39:02;11.05;;;5.45;;
39540;SDS011;25219;52.244;21.006;2022-12-29T16:41:30;12.70;;;5.22;;
39540;SDS011;25219;52.244;21.006;2022-12-29T16:44:11;18.25;;;6.05;;
39540;SDS011;25219;52.244;21.006;2022-12-29T16:46:38;12.27;;;5.53;;
39540;SDS011;25219;52.244;21.006;2022-12-29T16:49:07;11.45;;;5.72;;
39540;SDS011;25219;52.244;21.006;2022-12-29T16:51:39;14.57;;;5.57;;
39540;SDS011;25219;52.244;21.006;2022-12-29T16:54:05;9.45;;;5.50;;
39540;SDS011;25219;52.244;21.006;2022-12-29T16:56:33;10.70;;;5.53;;